sensor_id;sensor_type;location;lat;lon;timestamp;pressure;altitude;pressure_sealevel;temperature;humidity
62436;BME280;48480;50.252;18.848;2023-04-28T00:01:07;99124.48;;;5.92;56.94
62436;BME280;48480;50.252;18.848;2023-04-28T00:03:51;99124.07;;;5.97;55.97
62436;BME280;48480;50.252;18.848;2023-04-28T00:06:36;99125.02;;;6.05;55.34
62436;BME280;48480;50.252;18.848;2023-04-28T00:09:20;99123.52;;;6.14;54.95
62436;BME280;48480;50.252;18.848;2023-04-28T00:12:05;99125.31;;;6.24;55.01
62436;BME280;48480;50.252;18.848;2023-04-28T00:14:50;99121.57;;;6.30;55.06
62436;BME280;48480;50.252;18.848;2023-04-28T00:17:34;99120.70;;;6.36;54.95
62436;BME280;48480;50.252;18.848;2023-04-28T00:20:18;99119.51;;;6.41;54.90
62436;BME280;48480;50.252;18.848;2023-04-28T00:23:03;99124.02;;;6.48;54.24
62436;BME280;48480;50.252;18.848;2023-04-28T00:25:51;99121.70;;;6.53;53.91
62436;BME280;48480;50.252;18.848;2023-04-28T00:28:35;99124.27;;;6.53;55.03
62436;BME280;48480;50.252;18.848;2023-04-28T00:31:20;99125.27;;;6.43;56.15
62436;BME280;48480;50.252;18.848;2023-04-28T00:34:05;99117.52;;;6.32;56.85
62436;BME280;48480;50.252;18.848;2023-04-28T00:36:49;99116.99;;;6.23;57.07
62436;BME280;48480;50.252;18.848;2023-04-28T00:39:33;99111.90;;;6.18;56.53
62436;BME280;48480;50.252;18.848;2023-04-28T00:42:18;99110.57;;;6.14;55.76
62436;BME280;48480;50.252;18.848;2023-04-28T00:45:02;99115.36;;;6.16;55.36
62436;BME280;48480;50.252;18.848;2023-04-28T00:47:49;99112.86;;;6.19;55.42
62436;BME280;48480;50.252;18.848;2023-04-28T00:50:33;99112.16;;;6.21;55.40
62436;BME280;48480;50.252;18.848;2023-04-28T00:53:19;99112.14;;;6.24;55.85
62436;BME280;48480;50.252;18.848;2023-04-28T00:56:03;99114.81;;;6.22;56.35
62436;BME280;48480;50.252;18.848;2023-04-28T00:58:49;99115.79;;;6.19;56.77
62436;BME280;48480;50.252;18.848;2023-04-28T01:01:34;99113.56;;;6.14;56.91
62436;BME280;48480;50.252;18.848;2023-04-28T01:04:19;99113.41;;;6.07;56.28
62436;BME280;48480;50.252;18.848;2023-04-28T01:07:04;99113.58;;;6.04;55.81
62436;BME280;48480;50.252;18.848;2023-04-28T01:09:49;99114.16;;;6.01;55.66
62436;BME280;48480;50.252;18.848;2023-04-28T01:12:33;99119.23;;;5.99;55.46
62436;BME280;48480;50.252;18.848;2023-04-28T01:15:19;99118.80;;;5.99;55.39
62436;BME280;48480;50.252;18.848;2023-04-28T01:18:04;99117.20;;;5.99;55.33
62436;BME280;48480;50.252;18.848;2023-04-28T01:20:48;99116.19;;;6.00;55.29
62436;BME280;48480;50.252;18.848;2023-04-28T01:23:32;99117.51;;;6.02;55.54
62436;BME280;48480;50.252;18.848;2023-04-28T01:26:16;99113.54;;;5.99;56.23
62436;BME280;48480;50.252;18.848;2023-04-28T01:29:01;99114.15;;;5.94;56.57
62436;BME280;48480;50.252;18.848;2023-04-28T01:31:45;99113.08;;;5.87;56.97
62436;BME280;48480;50.252;18.848;2023-04-28T01:34:29;99108.79;;;5.77;57.29
62436;BME280;48480;50.252;18.848;2023-04-28T01:37:13;99108.26;;;5.68;57.41
62436;BME280;48480;50.252;18.848;2023-04-28T01:39:57;99108.80;;;5.62;57.24
62436;BME280;48480;50.252;18.848;2023-04-28T01:42:41;99108.89;;;5.58;56.83
62436;BME280;48480;50.252;18.848;2023-04-28T01:45:25;99110.75;;;5.59;56.83
62436;BME280;48480;50.252;18.848;2023-04-28T01:48:10;99111.55;;;5.62;56.91
62436;BME280;48480;50.252;18.848;2023-04-28T01:50:53;99111.56;;;5.64;56.99
62436;BME280;48480;50.252;18.848;2023-04-28T01:53:37;99108.69;;;5.65;57.49
62436;BME280;48480;50.252;18.848;2023-04-28T01:56:21;99110.48;;;5.68;57.40
62436;BME280;48480;50.252;18.848;2023-04-28T01:59:05;99111.45;;;5.71;57.36
62436;BME280;48480;50.252;18.848;2023-04-28T02:01:49;99113.10;;;5.70;57.25
62436;BME280;48480;50.252;18.848;2023-04-28T02:04:33;99112.31;;;5.72;57.36
62436;BME280;48480;50.252;18.848;2023-04-28T02:07:17;99111.17;;;5.74;57.62
62436;BME280;48480;50.252;18.848;2023-04-28T02:10:01;99108.89;;;5.73;57.77
62436;BME280;48480;50.252;18.848;2023-04-28T02:12:44;99107.34;;;5.68;57.90
62436;BME280;48480;50.252;18.848;2023-04-28T02:15:28;99107.88;;;5.63;57.90
62436;BME280;48480;50.252;18.848;2023-04-28T02:18:13;99109.36;;;5.59;58.09
62436;BME280;48480;50.252;18.848;2023-04-28T02:20:57;99111.13;;;5.52;58.28
62436;BME280;48480;50.252;18.848;2023-04-28T02:23:41;99110.53;;;5.42;58.49
62436;BME280;48480;50.252;18.848;2023-04-28T02:26:24;99105.41;;;5.35;58.81
62436;BME280;48480;50.252;18.848;2023-04-28T02:29:08;99103.23;;;5.28;59.16
62436;BME280;48480;50.252;18.848;2023-04-28T02:31:52;99099.50;;;5.21;59.43
62436;BME280;48480;50.252;18.848;2023-04-28T02:34:36;99095.17;;;5.17;59.59
62436;BME280;48480;50.252;18.848;2023-04-28T02:37:20;99091.83;;;5.08;59.87
62436;BME280;48480;50.252;18.848;2023-04-28T02:40:05;99089.56;;;4.98;60.27
62436;BME280;48480;50.252;18.848;2023-04-28T02:42:49;99078.66;;;4.79;60.76
62436;BME280;48480;50.252;18.848;2023-04-28T02:45:33;99085.20;;;4.73;61.09
62436;BME280;48480;50.252;18.848;2023-04-28T02:48:17;99084.70;;;4.66;61.48
62436;BME280;48480;50.252;18.848;2023-04-28T02:51:02;99087.50;;;4.61;61.77
62436;BME280;48480;50.252;18.848;2023-04-28T02:53:46;99088.41;;;4.50;62.09
62436;BME280;48480;50.252;18.848;2023-04-28T02:56:30;99084.98;;;4.46;62.40
62436;BME280;48480;50.252;18.848;2023-04-28T02:59:14;99084.35;;;4.46;62.35
62436;BME280;48480;50.252;18.848;2023-04-28T03:01:58;99087.44;;;4.49;62.37
62436;BME280;48480;50.252;18.848;2023-04-28T03:04:42;99087.43;;;4.45;62.32
62436;BME280;48480;50.252;18.848;2023-04-28T03:07:26;99089.08;;;4.47;62.28
62436;BME280;48480;50.252;18.848;2023-04-28T03:10:10;99090.80;;;4.49;62.13
62436;BME280;48480;50.252;18.848;2023-04-28T03:12:54;99085.21;;;4.49;62.11
62436;BME280;48480;50.252;18.848;2023-04-28T03:15:38;99083.98;;;4.48;62.10
62436;BME280;48480;50.252;18.848;2023-04-28T03:18:22;99084.73;;;4.48;62.21
62436;BME280;48480;50.252;18.848;2023-04-28T03:21:06;99088.13;;;4.46;62.30
62436;BME280;48480;50.252;18.848;2023-04-28T03:23:50;99083.49;;;4.45;62.41
62436;BME280;48480;50.252;18.848;2023-04-28T03:26:34;99084.93;;;4.44;62.46
62436;BME280;48480;50.252;18.848;2023-04-28T03:29:18;99082.46;;;4.40;62.57
62436;BME280;48480;50.252;18.848;2023-04-28T03:32:02;99081.96;;;4.34;62.69
62436;BME280;48480;50.252;18.848;2023-04-28T03:34:47;99084.20;;;4.26;62.74
62436;BME280;48480;50.252;18.848;2023-04-28T03:37:31;99086.30;;;4.20;62.84
62436;BME280;48480;50.252;18.848;2023-04-28T03:40:15;99084.12;;;4.21;62.78
62436;BME280;48480;50.252;18.848;2023-04-28T03:43:00;99082.98;;;4.17;62.82
62436;BME280;48480;50.252;18.848;2023-04-28T03:45:45;99080.21;;;4.14;62.87
62436;BME280;48480;50.252;18.848;2023-04-28T03:48:29;99080.84;;;4.14;62.86
62436;BME280;48480;50.252;18.848;2023-04-28T03:51:13;99078.14;;;4.13;63.01
62436;BME280;48480;50.252;18.848;2023-04-28T03:53:57;99073.15;;;4.15;63.17
62436;BME280;48480;50.252;18.848;2023-04-28T03:56:41;99073.88;;;4.22;63.12
62436;BME280;48480;50.252;18.848;2023-04-28T03:59:25;99073.10;;;4.27;62.95
62436;BME280;48480;50.252;18.848;2023-04-28T04:02:09;99073.78;;;4.27;63.04
62436;BME280;48480;50.252;18.848;2023-04-28T04:04:53;99082.89;;;4.29;63.10
62436;BME280;48480;50.252;18.848;2023-04-28T04:07:38;99083.48;;;4.32;63.05
62436;BME280;48480;50.252;18.848;2023-04-28T04:10:22;99070.16;;;4.25;63.05
62436;BME280;48480;50.252;18.848;2023-04-28T04:13:06;99082.83;;;4.38;62.90
62436;BME280;48480;50.252;18.848;2023-04-28T04:15:50;99085.58;;;4.47;62.85
62436;BME280;48480;50.252;18.848;2023-04-28T04:18:35;99091.66;;;4.56;62.68
62436;BME280;48480;50.252;18.848;2023-04-28T04:21:19;99092.49;;;4.64;62.25
62436;BME280;48480;50.252;18.848;2023-04-28T04:24:04;99094.38;;;4.71;62.18
62436;BME280;48480;50.252;18.848;2023-04-28T04:26:48;99098.14;;;4.80;62.02
62436;BME280;48480;50.252;18.848;2023-04-28T04:29:32;99101.72;;;4.90;61.69
62436;BME280;48480;50.252;18.848;2023-04-28T04:32:16;99104.67;;;5.00;61.40
62436;BME280;48480;50.252;18.848;2023-04-28T04:35:05;99103.67;;;5.04;61.17
62436;BME280;48480;50.252;18.848;2023-04-28T04:37:49;99102.73;;;5.10;61.10
62436;BME280;48480;50.252;18.848;2023-04-28T04:40:34;99099.45;;;5.21;60.94
62436;BME280;48480;50.252;18.848;2023-04-28T04:43:18;99089.40;;;5.25;60.54
62436;BME280;48480;50.252;18.848;2023-04-28T04:48:48;99100.86;;;5.50;60.19
62436;BME280;48480;50.252;18.848;2023-04-28T04:51:32;99098.77;;;5.61;59.92
62436;BME280;48480;50.252;18.848;2023-04-28T04:54:16;99098.67;;;5.71;59.66
62436;BME280;48480;50.252;18.848;2023-04-28T04:57:00;99101.37;;;5.80;59.32
62436;BME280;48480;50.252;18.848;2023-04-28T04:59:45;99102.75;;;5.89;59.26
62436;BME280;48480;50.252;18.848;2023-04-28T05:02:29;99101.11;;;5.99;59.02
62436;BME280;48480;50.252;18.848;2023-04-28T05:05:13;99102.86;;;6.10;58.78
62436;BME280;48480;50.252;18.848;2023-04-28T05:07:57;99095.17;;;6.18;58.64
62436;BME280;48480;50.252;18.848;2023-04-28T05:10:42;99103.38;;;6.40;58.16
62436;BME280;48480;50.252;18.848;2023-04-28T05:13:26;99101.29;;;6.56;57.95
62436;BME280;48480;50.252;18.848;2023-04-28T05:16:10;99098.08;;;6.69;57.48
62436;BME280;48480;50.252;18.848;2023-04-28T05:18:54;99097.88;;;6.76;57.09
62436;BME280;48480;50.252;18.848;2023-04-28T05:21:38;99103.59;;;6.76;56.97
62436;BME280;48480;50.252;18.848;2023-04-28T05:24:22;99104.41;;;6.74;57.18
62436;BME280;48480;50.252;18.848;2023-04-28T05:27:06;99104.66;;;6.77;57.13
62436;BME280;48480;50.252;18.848;2023-04-28T05:29:50;99103.48;;;6.76;57.05
62436;BME280;48480;50.252;18.848;2023-04-28T05:32:35;99100.55;;;6.77;56.99
62436;BME280;48480;50.252;18.848;2023-04-28T05:35:19;99101.75;;;6.86;56.92
62436;BME280;48480;50.252;18.848;2023-04-28T05:38:08;99099.11;;;6.87;56.84
62436;BME280;48480;50.252;18.848;2023-04-28T05:40:53;99100.59;;;6.89;56.83
62436;BME280;48480;50.252;18.848;2023-04-28T05:43:38;99101.27;;;6.91;56.79
62436;BME280;48480;50.252;18.848;2023-04-28T05:46:22;99101.42;;;6.95;57.02
62436;BME280;48480;50.252;18.848;2023-04-28T05:49:06;99100.15;;;7.01;56.86
62436;BME280;48480;50.252;18.848;2023-04-28T05:51:50;99102.19;;;7.09;56.70
62436;BME280;48480;50.252;18.848;2023-04-28T05:54:35;99102.20;;;7.23;56.37
62436;BME280;48480;50.252;18.848;2023-04-28T05:57:19;99087.48;;;7.30;56.13
62436;BME280;48480;50.252;18.848;2023-04-28T06:00:04;99097.27;;;7.49;56.02
62436;BME280;48480;50.252;18.848;2023-04-28T06:02:48;99094.98;;;7.63;55.74
62436;BME280;48480;50.252;18.848;2023-04-28T06:05:32;99092.04;;;7.76;55.44
62436;BME280;48480;50.252;18.848;2023-04-28T06:08:15;99091.84;;;7.91;55.14
62436;BME280;48480;50.252;18.848;2023-04-28T06:11:00;99099.41;;;8.10;54.70
62436;BME280;48480;50.252;18.848;2023-04-28T06:13:44;99101.30;;;8.28;54.36
62436;BME280;48480;50.252;18.848;2023-04-28T06:16:28;99099.96;;;8.45;53.87
62436;BME280;48480;50.252;18.848;2023-04-28T06:19:11;99101.75;;;8.62;53.32
62436;BME280;48480;50.252;18.848;2023-04-28T06:22:09;99100.06;;;8.73;52.83
62436;BME280;48480;50.252;18.848;2023-04-28T06:24:53;99094.03;;;8.84;52.64
62436;BME280;48480;50.252;18.848;2023-04-28T06:27:45;99091.73;;;8.99;52.27
62436;BME280;48480;50.252;18.848;2023-04-28T06:30:29;99088.28;;;9.20;51.90
62436;BME280;48480;50.252;18.848;2023-04-28T06:33:19;99090.90;;;9.39;51.63
62436;BME280;48480;50.252;18.848;2023-04-28T06:36:04;99089.61;;;9.62;51.45
62436;BME280;48480;50.252;18.848;2023-04-28T06:41:40;99094.25;;;10.97;49.44
62436;BME280;48480;50.252;18.848;2023-04-28T06:44:26;99090.30;;;11.68;48.14
62436;BME280;48480;50.252;18.848;2023-04-28T06:47:11;99087.64;;;12.49;46.32
62436;BME280;48480;50.252;18.848;2023-04-28T06:49:54;99085.23;;;13.26;44.33
62436;BME280;48480;50.252;18.848;2023-04-28T06:52:38;99083.23;;;13.95;42.46
62436;BME280;48480;50.252;18.848;2023-04-28T06:55:22;99078.55;;;14.55;40.83
62436;BME280;48480;50.252;18.848;2023-04-28T06:58:06;99073.45;;;15.01;39.47
62436;BME280;48480;50.252;18.848;2023-04-28T07:00:50;99071.93;;;15.31;38.37
62436;BME280;48480;50.252;18.848;2023-04-28T07:03:36;99069.00;;;15.56;37.48
62436;BME280;48480;50.252;18.848;2023-04-28T07:06:21;99064.45;;;15.99;36.71
62436;BME280;48480;50.252;18.848;2023-04-28T07:09:05;99062.13;;;16.36;35.69
62436;BME280;48480;50.252;18.848;2023-04-28T07:11:51;99060.95;;;16.68;34.56
62436;BME280;48480;50.252;18.848;2023-04-28T07:14:36;99058.30;;;16.85;33.72
62436;BME280;48480;50.252;18.848;2023-04-28T07:17:19;99055.17;;;17.10;33.34
62436;BME280;48480;50.252;18.848;2023-04-28T07:20:04;99052.70;;;17.36;32.61
62436;BME280;48480;50.252;18.848;2023-04-28T07:22:49;99049.42;;;17.61;31.93
62436;BME280;48480;50.252;18.848;2023-04-28T07:25:33;99049.16;;;17.83;31.70
62436;BME280;48480;50.252;18.848;2023-04-28T07:28:23;99045.97;;;18.14;31.17
62436;BME280;48480;50.252;18.848;2023-04-28T07:31:07;99045.88;;;18.44;30.18
62436;BME280;48480;50.252;18.848;2023-04-28T07:33:52;99047.02;;;18.59;29.30
62436;BME280;48480;50.252;18.848;2023-04-28T07:36:37;99039.16;;;18.66;28.95
62436;BME280;48480;50.252;18.848;2023-04-28T07:39:21;99034.76;;;18.77;28.91
62436;BME280;48480;50.252;18.848;2023-04-28T07:42:05;99032.19;;;19.03;28.47
62436;BME280;48480;50.252;18.848;2023-04-28T07:44:49;99030.78;;;19.22;27.97
62436;BME280;48480;50.252;18.848;2023-04-28T07:47:34;99028.73;;;19.33;27.51
62436;BME280;48480;50.252;18.848;2023-04-28T07:50:19;99024.92;;;19.37;27.02
62436;BME280;48480;50.252;18.848;2023-04-28T07:53:03;99027.41;;;19.41;26.54
62436;BME280;48480;50.252;18.848;2023-04-28T07:55:47;99024.08;;;19.42;26.46
62436;BME280;48480;50.252;18.848;2023-04-28T07:58:32;99027.77;;;19.43;26.44
62436;BME280;48480;50.252;18.848;2023-04-28T08:01:16;99030.76;;;19.46;25.94
62436;BME280;48480;50.252;18.848;2023-04-28T08:04:00;99029.11;;;19.28;25.65
62436;BME280;48480;50.252;18.848;2023-04-28T08:06:44;99023.64;;;19.15;25.53
62436;BME280;48480;50.252;18.848;2023-04-28T08:09:28;99025.08;;;19.04;25.66
62436;BME280;48480;50.252;18.848;2023-04-28T08:12:18;99017.75;;;18.95;25.37
62436;BME280;48480;50.252;18.848;2023-04-28T08:15:02;99014.14;;;18.94;25.49
62436;BME280;48480;50.252;18.848;2023-04-28T08:17:46;99014.91;;;18.93;24.83
62436;BME280;48480;50.252;18.848;2023-04-28T08:20:30;99013.91;;;18.80;24.91
62436;BME280;48480;50.252;18.848;2023-04-28T08:23:15;99012.20;;;18.72;24.61
62436;BME280;48480;50.252;18.848;2023-04-28T08:25:59;99007.20;;;18.75;24.50
62436;BME280;48480;50.252;18.848;2023-04-28T08:28:44;99005.51;;;18.86;24.47
62436;BME280;48480;50.252;18.848;2023-04-28T08:31:28;99005.19;;;18.89;23.73
62436;BME280;48480;50.252;18.848;2023-04-28T08:34:12;99001.29;;;18.74;23.93
62436;BME280;48480;50.252;18.848;2023-04-28T08:36:56;98999.98;;;18.63;24.27
62436;BME280;48480;50.252;18.848;2023-04-28T08:39:40;99001.38;;;18.60;24.13
62436;BME280;48480;50.252;18.848;2023-04-28T08:42:25;98992.95;;;18.65;24.13
62436;BME280;48480;50.252;18.848;2023-04-28T08:45:12;98988.82;;;18.75;24.34
62436;BME280;48480;50.252;18.848;2023-04-28T08:47:57;98990.33;;;18.88;24.42
62436;BME280;48480;50.252;18.848;2023-04-28T08:50:43;98989.73;;;18.97;24.49
62436;BME280;48480;50.252;18.848;2023-04-28T08:53:36;98988.69;;;18.99;24.44
62436;BME280;48480;50.252;18.848;2023-04-28T08:56:22;98987.34;;;19.01;24.56
62436;BME280;48480;50.252;18.848;2023-04-28T08:59:08;98985.70;;;19.09;24.84
62436;BME280;48480;50.252;18.848;2023-04-28T09:01:52;98976.14;;;19.08;24.74
62436;BME280;48480;50.252;18.848;2023-04-28T09:04:37;98976.31;;;19.18;24.79
62436;BME280;48480;50.252;18.848;2023-04-28T09:07:22;98978.14;;;19.28;24.64
62436;BME280;48480;50.252;18.848;2023-04-28T09:13:04;98973.66;;;19.21;25.05
62436;BME280;48480;50.252;18.848;2023-04-28T09:15:48;98966.83;;;19.30;24.95
62436;BME280;48480;50.252;18.848;2023-04-28T09:18:33;98964.73;;;19.53;24.66
62436;BME280;48480;50.252;18.848;2023-04-28T09:21:17;98966.73;;;19.72;24.48
62436;BME280;48480;50.252;18.848;2023-04-28T09:24:01;98964.45;;;19.81;24.51
62436;BME280;48480;50.252;18.848;2023-04-28T09:26:48;98959.53;;;19.95;24.32
62436;BME280;48480;50.252;18.848;2023-04-28T09:29:37;98956.05;;;20.07;24.45
62436;BME280;48480;50.252;18.848;2023-04-28T09:32:22;98958.94;;;20.18;23.96
62436;BME280;48480;50.252;18.848;2023-04-28T09:35:07;98959.98;;;20.09;24.11
62436;BME280;48480;50.252;18.848;2023-04-28T09:37:57;98953.61;;;19.99;23.93
62436;BME280;48480;50.252;18.848;2023-04-28T09:43:39;98940.42;;;20.18;23.83
62436;BME280;48480;50.252;18.848;2023-04-28T09:46:28;98937.32;;;20.13;23.97
62436;BME280;48480;50.252;18.848;2023-04-28T09:49:13;98934.50;;;19.96;24.05
62436;BME280;48480;50.252;18.848;2023-04-28T09:52:11;98934.11;;;19.67;24.24
62436;BME280;48480;50.252;18.848;2023-04-28T09:54:57;98933.73;;;19.30;24.45
62436;BME280;48480;50.252;18.848;2023-04-28T09:57:43;98925.06;;;19.28;24.88
62436;BME280;48480;50.252;18.848;2023-04-28T10:00:28;98917.23;;;19.30;24.75
62436;BME280;48480;50.252;18.848;2023-04-28T10:03:14;98918.98;;;19.35;24.41
62436;BME280;48480;50.252;18.848;2023-04-28T10:05:58;98912.65;;;19.38;24.31
62436;BME280;48480;50.252;18.848;2023-04-28T10:08:43;98907.08;;;19.45;24.55
62436;BME280;48480;50.252;18.848;2023-04-28T10:11:28;98906.70;;;19.60;24.37
62436;BME280;48480;50.252;18.848;2023-04-28T10:14:14;98904.83;;;19.69;24.26
62436;BME280;48480;50.252;18.848;2023-04-28T10:16:58;98900.79;;;19.78;24.41
62436;BME280;48480;50.252;18.848;2023-04-28T10:19:46;98891.95;;;19.96;24.46
62436;BME280;48480;50.252;18.848;2023-04-28T10:22:57;98886.24;;;20.04;24.36
62436;BME280;48480;50.252;18.848;2023-04-28T10:25:47;98887.83;;;20.19;23.90
62436;BME280;48480;50.252;18.848;2023-04-28T10:28:36;98881.48;;;20.27;24.02
62436;BME280;48480;50.252;18.848;2023-04-28T10:31:21;98884.96;;;20.38;23.84
62436;BME280;48480;50.252;18.848;2023-04-28T10:34:25;98879.38;;;20.46;23.80
62436;BME280;48480;50.252;18.848;2023-04-28T10:37:11;98874.85;;;20.20;24.11
62436;BME280;48480;50.252;18.848;2023-04-28T10:40:32;98870.80;;;20.08;24.33
62436;BME280;48480;50.252;18.848;2023-04-28T10:46:16;98858.48;;;20.19;24.17
62436;BME280;48480;50.252;18.848;2023-04-28T10:49:00;98853.39;;;20.34;24.35
62436;BME280;48480;50.252;18.848;2023-04-28T10:51:45;98847.75;;;20.51;23.80
62436;BME280;48480;50.252;18.848;2023-04-28T10:54:32;98853.70;;;20.53;23.22
62436;BME280;48480;50.252;18.848;2023-04-28T10:57:17;98850.08;;;20.44;23.10
62436;BME280;48480;50.252;18.848;2023-04-28T11:00:27;98846.89;;;20.44;23.35
62436;BME280;48480;50.252;18.848;2023-04-28T11:12:05;98817.92;;;20.57;23.71
62436;BME280;48480;50.252;18.848;2023-04-28T11:14:53;98812.73;;;20.58;23.70
62436;BME280;48480;50.252;18.848;2023-04-28T11:17:40;98810.06;;;20.57;23.57
62436;BME280;48480;50.252;18.848;2023-04-28T11:20:31;98808.48;;;20.56;23.26
62436;BME280;48480;50.252;18.848;2023-04-28T11:23:17;98806.26;;;20.52;22.85
62436;BME280;48480;50.252;18.848;2023-04-28T11:26:03;98806.34;;;20.44;23.08
62436;BME280;48480;50.252;18.848;2023-04-28T11:28:48;98805.54;;;20.42;23.09
62436;BME280;48480;50.252;18.848;2023-04-28T11:31:33;98800.86;;;20.34;23.10
62436;BME280;48480;50.252;18.848;2023-04-28T11:34:20;98792.04;;;20.39;23.53
62436;BME280;48480;50.252;18.848;2023-04-28T11:37:05;98789.59;;;20.50;23.57
62436;BME280;48480;50.252;18.848;2023-04-28T11:39:51;98796.27;;;20.48;23.33
62436;BME280;48480;50.252;18.848;2023-04-28T11:42:35;98795.96;;;20.42;23.45
62436;BME280;48480;50.252;18.848;2023-04-28T11:45:19;98791.01;;;20.37;23.39
62436;BME280;48480;50.252;18.848;2023-04-28T11:48:20;98791.99;;;20.34;23.68
62436;BME280;48480;50.252;18.848;2023-04-28T11:51:04;98792.23;;;20.37;23.66
62436;BME280;48480;50.252;18.848;2023-04-28T11:53:49;98790.02;;;20.33;23.79
62436;BME280;48480;50.252;18.848;2023-04-28T11:56:52;98791.60;;;20.28;23.58
62436;BME280;48480;50.252;18.848;2023-04-28T11:59:36;98791.42;;;20.18;23.52
62436;BME280;48480;50.252;18.848;2023-04-28T12:02:27;98780.52;;;20.12;24.12
62436;BME280;48480;50.252;18.848;2023-04-28T12:05:11;98780.09;;;20.08;24.13
62436;BME280;48480;50.252;18.848;2023-04-28T12:07:55;98786.35;;;20.04;23.85
62436;BME280;48480;50.252;18.848;2023-04-28T12:10:39;98776.17;;;19.93;23.90
62436;BME280;48480;50.252;18.848;2023-04-28T12:13:24;98773.89;;;19.84;24.38
62436;BME280;48480;50.252;18.848;2023-04-28T12:16:08;98769.65;;;19.81;24.18
62436;BME280;48480;50.252;18.848;2023-04-28T12:19:01;98771.50;;;19.70;24.26
62436;BME280;48480;50.252;18.848;2023-04-28T12:25:08;98758.36;;;19.54;24.11
62436;BME280;48480;50.252;18.848;2023-04-28T12:28:03;98750.52;;;19.48;24.24
62436;BME280;48480;50.252;18.848;2023-04-28T12:30:48;98746.77;;;19.36;24.11
62436;BME280;48480;50.252;18.848;2023-04-28T12:33:32;98743.77;;;19.26;24.14
62436;BME280;48480;50.252;18.848;2023-04-28T12:36:24;98737.39;;;19.16;24.31
62436;BME280;48480;50.252;18.848;2023-04-28T12:39:13;98735.03;;;19.09;24.44
62436;BME280;48480;50.252;18.848;2023-04-28T12:41:59;98725.89;;;18.95;24.28
62436;BME280;48480;50.252;18.848;2023-04-28T12:44:45;98727.35;;;18.76;24.74
62436;BME280;48480;50.252;18.848;2023-04-28T12:47:30;98730.47;;;18.77;25.10
62436;BME280;48480;50.252;18.848;2023-04-28T12:50:15;98725.69;;;18.83;25.22
62436;BME280;48480;50.252;18.848;2023-04-28T12:52:59;98716.42;;;18.91;25.20
62436;BME280;48480;50.252;18.848;2023-04-28T12:55:43;98707.74;;;18.97;24.75
62436;BME280;48480;50.252;18.848;2023-04-28T12:58:29;98709.80;;;19.00;24.86
62436;BME280;48480;50.252;18.848;2023-04-28T13:01:13;98705.02;;;19.01;25.20
62436;BME280;48480;50.252;18.848;2023-04-28T13:04:11;98706.88;;;19.05;25.33
62436;BME280;48480;50.252;18.848;2023-04-28T13:06:56;98700.91;;;19.13;25.18
62436;BME280;48480;50.252;18.848;2023-04-28T13:09:54;98702.66;;;19.15;24.80
62436;BME280;48480;50.252;18.848;2023-04-28T13:12:38;98689.35;;;19.09;24.59
62436;BME280;48480;50.252;18.848;2023-04-28T13:15:29;98678.90;;;19.05;24.83
62436;BME280;48480;50.252;18.848;2023-04-28T13:18:13;98681.80;;;19.06;25.09
62436;BME280;48480;50.252;18.848;2023-04-28T13:20:57;98684.04;;;19.12;25.01
62436;BME280;48480;50.252;18.848;2023-04-28T13:23:42;98684.30;;;19.09;24.67
62436;BME280;48480;50.252;18.848;2023-04-28T13:26:26;98678.16;;;19.02;24.76
62436;BME280;48480;50.252;18.848;2023-04-28T13:29:00;98676.57;;;18.95;24.86
62436;BME280;48480;50.252;18.848;2023-04-28T13:31:45;98675.91;;;18.82;25.15
62436;BME280;48480;50.252;18.848;2023-04-28T13:34:32;98680.41;;;18.74;25.48
62436;BME280;48480;50.252;18.848;2023-04-28T13:37:17;98681.19;;;18.69;25.52
62436;BME280;48480;50.252;18.848;2023-04-28T13:42:57;98667.52;;;18.74;25.56
62436;BME280;48480;50.252;18.848;2023-04-28T13:45:53;98656.48;;;18.78;25.67
62436;BME280;48480;50.252;18.848;2023-04-28T13:48:38;98650.54;;;18.84;26.06
62436;BME280;48480;50.252;18.848;2023-04-28T13:51:30;98639.86;;;18.85;25.70
62436;BME280;48480;50.252;18.848;2023-04-28T13:54:18;98638.80;;;18.92;25.62
62436;BME280;48480;50.252;18.848;2023-04-28T13:57:06;98646.52;;;19.01;25.58
62436;BME280;48480;50.252;18.848;2023-04-28T13:59:56;98641.61;;;18.99;25.32
62436;BME280;48480;50.252;18.848;2023-04-28T14:02:47;98647.30;;;18.99;25.42
62436;BME280;48480;50.252;18.848;2023-04-28T14:05:32;98646.77;;;18.96;25.63
62436;BME280;48480;50.252;18.848;2023-04-28T14:08:34;98646.47;;;18.97;25.65
62436;BME280;48480;50.252;18.848;2023-04-28T14:11:19;98642.26;;;18.90;25.45
62436;BME280;48480;50.252;18.848;2023-04-28T14:14:04;98641.22;;;18.83;25.66
62436;BME280;48480;50.252;18.848;2023-04-28T14:16:48;98640.83;;;18.74;25.72
62436;BME280;48480;50.252;18.848;2023-04-28T14:19:36;98636.88;;;18.64;25.95
62436;BME280;48480;50.252;18.848;2023-04-28T14:22:24;98635.08;;;18.58;26.29
62436;BME280;48480;50.252;18.848;2023-04-28T14:25:10;98624.45;;;18.54;26.18
62436;BME280;48480;50.252;18.848;2023-04-28T14:27:54;98623.34;;;18.47;26.24
62436;BME280;48480;50.252;18.848;2023-04-28T14:30:38;98615.31;;;18.45;26.27
62436;BME280;48480;50.252;18.848;2023-04-28T14:33:22;98610.48;;;18.58;26.41
62436;BME280;48480;50.252;18.848;2023-04-28T14:36:07;98616.10;;;18.77;26.25
62436;BME280;48480;50.252;18.848;2023-04-28T14:38:52;98613.14;;;18.85;25.89
62436;BME280;48480;50.252;18.848;2023-04-28T14:41:36;98611.00;;;18.87;25.81
62436;BME280;48480;50.252;18.848;2023-04-28T14:44:25;98612.06;;;18.92;25.35
62436;BME280;48480;50.252;18.848;2023-04-28T14:47:12;98611.65;;;19.06;25.70
62436;BME280;48480;50.252;18.848;2023-04-28T14:50:07;98608.91;;;19.17;25.39
62436;BME280;48480;50.252;18.848;2023-04-28T14:52:51;98607.77;;;19.24;25.50
62436;BME280;48480;50.252;18.848;2023-04-28T14:55:43;98606.08;;;19.32;25.58
62436;BME280;48480;50.252;18.848;2023-04-28T14:58:27;98606.84;;;19.25;25.30
62436;BME280;48480;50.252;18.848;2023-04-28T15:01:21;98607.02;;;19.14;25.53